Fountain Run, KY (42133)

8:32 PM CST on November 28, 2014 (GMT -0600)
Pumpkintown | Change Station
CLOSE
Current Station
Personal Weather Station
Location: Red Boiling Springs, TN
Elevation: 902 ft
Nearby Weather Stations

Elev 902 ft 36.58 °N, 85.91 °W | Updated 10 minutes ago

Partly Cloudy
Partly Cloudy
40.2 °F
Feels Like 40 °F
N
2.0
Wind Variable Wind from South
Gusts 7.0 mph

Today
High -- | Low -- °F
--% Chance of Precip.
Yesterday
High -- | Low -- °F
Precip. -- in
6:34 AM 4:28 PM
Waxing Crescent, 46% visible
Pressure 30.13 in
Visibility 10.0 miles
Clouds Clear
Windchill 40 °F
Dew Point 23 °F
Humidity 51%
Rainfall 0.00 in
Snow Depth Not available.
UV 0.0 out of 12
Pollen .10 out of 12
Air Quality Not available.
Flu Activity Not available.
METAR KGLW 290215Z AUTO 19006KT 170V230 10SM CLR 04/M07 A3013 RMK AO2 T00421067

More Conditions Fewer Conditions

Pressure 30.13 in
Visibility 10.0 miles
Clouds Clear
Windchill 40 °F
Dew Point 23 °F
Humidity 51%
Rainfall 0.00 in
Snow Depth Not available.
UV 0.0 out of 12
Pollen .10 out of 12
Air Quality Not available.
Flu Activity Not available.
METAR KGLW 290215Z AUTO 19006KT 170V230 10SM CLR 04/M07 A3013 RMK AO2 T00421067

More Conditions Fewer Conditions

10-Day Weather Forecast

Almanac

Astronomy

Nov. 28, 2014 Rise Set
Actual Time
Civil Twilight
Nautical Twilight
Astronomical Twilight
Moon
Length of Visible Light
Length of Day
Tomorrow will be .
, % of the Moon is Illuminated

Today's Extremes

State Highs State Lows

Community

WunderPhotos

Upload Photos

1,774,375 photos uploaded!

WunderBlogs® & News

Nearby

Air Quality

  Air Quality AQ Index Pollutant
Not available.

Snow Depth

Station Depth Elevation

Earthquake Activity

City Distance Mag. Time & Date
Minimum magnitude displayed is 2.5.

Coastal Water Temperatures

Place Temperature

Nearby Weather Stations